Beverly, West Virginia
Current Conditions -  °F | °C
As of 2:51 PM on Tuesday 21 Oct 2014 (Local Time) from KEKN Reporting Station
Light Rain Light Rain  
Wind Chill: 47°   Ceiling: 3700
Heat Index: 49°   Visibility: 10mi
Dew Point: 46°   Wind: 6mph
Humidity: 90%   Direction: 340°NNW
Pressure: 29.91"   Gusts: NA
Location:  38.84°N, 79.88°W
Report Text: KEKN 211851Z AUTO 34005KT 10SM -RA FEW010 BKN037 OVC045 09/08 A2991 RMK AO2 SLP134 P0009 T00940078 TSNO
Loading
Personal Weather Stations






























Interactive Weather Map
Tropical Storm Tracking
New forecast layout! Learn more

10-Day Weather Forecast

Advertisements
Track Severe Weather on mobile